sensor_id;sensor_type;location;lat;lon;timestamp;P1;durP1;ratioP1;P2;durP2;ratioP2
55672;SDS011;41554;45.366;20.400;2023-01-04T00:01:30;67.65;;;38.22;;
55672;SDS011;41554;45.366;20.400;2023-01-04T00:03:56;75.28;;;37.80;;
55672;SDS011;41554;45.366;20.400;2023-01-04T00:06:22;69.07;;;37.00;;
55672;SDS011;41554;45.366;20.400;2023-01-04T00:08:48;76.38;;;40.95;;
55672;SDS011;41554;45.366;20.400;2023-01-04T00:11:15;70.50;;;38.88;;
55672;SDS011;41554;45.366;20.400;2023-01-04T00:13:42;61.50;;;35.90;;
55672;SDS011;41554;45.366;20.400;2023-01-04T00:16:10;69.03;;;36.15;;
55672;SDS011;41554;45.366;20.400;2023-01-04T00:18:37;51.50;;;33.90;;
55672;SDS011;41554;45.366;20.400;2023-01-04T00:23:34;52.10;;;32.83;;
55672;SDS011;41554;45.366;20.400;2023-01-04T00:26:00;43.65;;;28.45;;
55672;SDS011;41554;45.366;20.400;2023-01-04T00:28:26;42.35;;;26.48;;
55672;SDS011;41554;45.366;20.400;2023-01-04T00:30:52;41.10;;;24.75;;
55672;SDS011;41554;45.366;20.400;2023-01-04T00:33:18;46.85;;;27.73;;
55672;SDS011;41554;45.366;20.400;2023-01-04T00:35:44;37.40;;;21.88;;
55672;SDS011;41554;45.366;20.400;2023-01-04T00:38:10;45.60;;;27.33;;
55672;SDS011;41554;45.366;20.400;2023-01-04T00:40:36;40.33;;;24.27;;
55672;SDS011;41554;45.366;20.400;2023-01-04T00:43:02;47.28;;;27.52;;
55672;SDS011;41554;45.366;20.400;2023-01-04T00:45:28;41.78;;;26.17;;
55672;SDS011;41554;45.366;20.400;2023-01-04T00:47:54;45.17;;;29.50;;
55672;SDS011;41554;45.366;20.400;2023-01-04T00:50:20;45.60;;;30.92;;
55672;SDS011;41554;45.366;20.400;2023-01-04T00:52:48;55.05;;;30.90;;
55672;SDS011;41554;45.366;20.400;2023-01-04T00:55:14;35.22;;;24.83;;
55672;SDS011;41554;45.366;20.400;2023-01-04T00:57:40;50.67;;;30.42;;
55672;SDS011;41554;45.366;20.400;2023-01-04T01:00:06;36.70;;;24.33;;
55672;SDS011;41554;45.366;20.400;2023-01-04T01:02:33;33.67;;;25.23;;
55672;SDS011;41554;45.366;20.400;2023-01-04T01:04:59;39.45;;;24.90;;
55672;SDS011;41554;45.366;20.400;2023-01-04T01:07:25;42.13;;;24.58;;
55672;SDS011;41554;45.366;20.400;2023-01-04T01:09:51;50.35;;;25.48;;
55672;SDS011;41554;45.366;20.400;2023-01-04T01:12:17;30.88;;;20.17;;
55672;SDS011;41554;45.366;20.400;2023-01-04T01:14:43;33.70;;;21.75;;
55672;SDS011;41554;45.366;20.400;2023-01-04T01:17:09;34.17;;;21.75;;
55672;SDS011;41554;45.366;20.400;2023-01-04T01:19:35;35.15;;;24.45;;
55672;SDS011;41554;45.366;20.400;2023-01-04T01:22:01;33.53;;;22.02;;
55672;SDS011;41554;45.366;20.400;2023-01-04T01:24:27;31.83;;;21.23;;
55672;SDS011;41554;45.366;20.400;2023-01-04T01:26:53;28.95;;;21.20;;
55672;SDS011;41554;45.366;20.400;2023-01-04T01:29:19;24.38;;;18.65;;
55672;SDS011;41554;45.366;20.400;2023-01-04T01:31:45;29.83;;;21.45;;
55672;SDS011;41554;45.366;20.400;2023-01-04T01:34:11;27.92;;;22.02;;
55672;SDS011;41554;45.366;20.400;2023-01-04T01:36:37;38.78;;;21.77;;
55672;SDS011;41554;45.366;20.400;2023-01-04T01:39:04;26.83;;;19.00;;
55672;SDS011;41554;45.366;20.400;2023-01-04T01:41:31;27.65;;;21.05;;
55672;SDS011;41554;45.366;20.400;2023-01-04T01:44:05;24.00;;;16.70;;
55672;SDS011;41554;45.366;20.400;2023-01-04T01:46:39;24.88;;;18.13;;
55672;SDS011;41554;45.366;20.400;2023-01-04T01:51:41;28.10;;;18.95;;
55672;SDS011;41554;45.366;20.400;2023-01-04T01:54:09;32.08;;;19.35;;
55672;SDS011;41554;45.366;20.400;2023-01-04T01:56:37;23.30;;;17.88;;
55672;SDS011;41554;45.366;20.400;2023-01-04T01:59:04;30.10;;;19.17;;
55672;SDS011;41554;45.366;20.400;2023-01-04T02:01:31;25.35;;;18.55;;
55672;SDS011;41554;45.366;20.400;2023-01-04T02:03:57;29.10;;;19.83;;
55672;SDS011;41554;45.366;20.400;2023-01-04T02:06:25;27.95;;;21.10;;
55672;SDS011;41554;45.366;20.400;2023-01-04T02:08:53;29.02;;;20.40;;
55672;SDS011;41554;45.366;20.400;2023-01-04T02:11:20;26.42;;;19.80;;
55672;SDS011;41554;45.366;20.400;2023-01-04T02:13:46;27.77;;;17.98;;
55672;SDS011;41554;45.366;20.400;2023-01-04T02:17:18;28.00;;;20.92;;
55672;SDS011;41554;45.366;20.400;2023-01-04T02:32:36;29.75;;;18.55;;
55672;SDS011;41554;45.366;20.400;2023-01-04T02:35:14;27.73;;;21.50;;
55672;SDS011;41554;45.366;20.400;2023-01-04T02:37:45;33.15;;;22.10;;
55672;SDS011;41554;45.366;20.400;2023-01-04T02:45:49;32.08;;;22.70;;
55672;SDS011;41554;45.366;20.400;2023-01-04T02:48:17;26.83;;;18.58;;
55672;SDS011;41554;45.366;20.400;2023-01-04T02:51:01;27.88;;;21.33;;
55672;SDS011;41554;45.366;20.400;2023-01-04T02:53:32;23.17;;;19.65;;
55672;SDS011;41554;45.366;20.400;2023-01-04T02:56:04;27.42;;;19.80;;
55672;SDS011;41554;45.366;20.400;2023-01-04T02:58:51;23.75;;;18.65;;
55672;SDS011;41554;45.366;20.400;2023-01-04T03:09:43;27.27;;;19.63;;
55672;SDS011;41554;45.366;20.400;2023-01-04T03:12:32;29.58;;;19.17;;
55672;SDS011;41554;45.366;20.400;2023-01-04T03:15:11;23.33;;;18.35;;
55672;SDS011;41554;45.366;20.400;2023-01-04T03:17:40;32.25;;;21.65;;
55672;SDS011;41554;45.366;20.400;2023-01-04T03:20:07;24.23;;;18.35;;
55672;SDS011;41554;45.366;20.400;2023-01-04T03:22:51;30.02;;;21.90;;
55672;SDS011;41554;45.366;20.400;2023-01-04T03:25:38;32.20;;;20.60;;
55672;SDS011;41554;45.366;20.400;2023-01-04T03:28:25;29.45;;;20.75;;
55672;SDS011;41554;45.366;20.400;2023-01-04T03:31:13;31.13;;;19.08;;
55672;SDS011;41554;45.366;20.400;2023-01-04T03:33:59;22.20;;;19.50;;
55672;SDS011;41554;45.366;20.400;2023-01-04T03:48:01;33.05;;;19.30;;
55672;SDS011;41554;45.366;20.400;2023-01-04T03:50:46;28.77;;;19.55;;
55672;SDS011;41554;45.366;20.400;2023-01-04T03:53:14;25.13;;;18.70;;
55672;SDS011;41554;45.366;20.400;2023-01-04T03:55:40;22.60;;;17.15;;
55672;SDS011;41554;45.366;20.400;2023-01-04T03:58:07;22.63;;;16.08;;
55672;SDS011;41554;45.366;20.400;2023-01-04T04:00:33;26.42;;;17.98;;
55672;SDS011;41554;45.366;20.400;2023-01-04T04:02:59;24.55;;;16.02;;
55672;SDS011;41554;45.366;20.400;2023-01-04T04:05:33;30.67;;;17.70;;
55672;SDS011;41554;45.366;20.400;2023-01-04T04:08:18;27.80;;;16.75;;
55672;SDS011;41554;45.366;20.400;2023-01-04T04:10:53;26.15;;;18.92;;
55672;SDS011;41554;45.366;20.400;2023-01-04T04:13:20;24.35;;;20.00;;
55672;SDS011;41554;45.366;20.400;2023-01-04T04:15:46;29.33;;;20.35;;
55672;SDS011;41554;45.366;20.400;2023-01-04T04:18:12;28.63;;;19.08;;
55672;SDS011;41554;45.366;20.400;2023-01-04T04:20:38;28.25;;;19.48;;
55672;SDS011;41554;45.366;20.400;2023-01-04T04:23:05;26.38;;;17.52;;
55672;SDS011;41554;45.366;20.400;2023-01-04T04:25:31;24.27;;;16.52;;
55672;SDS011;41554;45.366;20.400;2023-01-04T04:27:57;23.83;;;18.98;;
55672;SDS011;41554;45.366;20.400;2023-01-04T04:30:23;23.88;;;15.23;;
55672;SDS011;41554;45.366;20.400;2023-01-04T04:32:49;23.17;;;17.50;;
55672;SDS011;41554;45.366;20.400;2023-01-04T04:35:15;22.65;;;18.23;;
55672;SDS011;41554;45.366;20.400;2023-01-04T04:37:41;23.17;;;19.33;;
55672;SDS011;41554;45.366;20.400;2023-01-04T04:40:07;24.73;;;18.17;;
55672;SDS011;41554;45.366;20.400;2023-01-04T04:42:53;23.88;;;16.50;;
55672;SDS011;41554;45.366;20.400;2023-01-04T04:45:20;21.67;;;17.48;;
55672;SDS011;41554;45.366;20.400;2023-01-04T04:47:46;23.52;;;19.98;;
55672;SDS011;41554;45.366;20.400;2023-01-04T04:50:12;26.45;;;18.83;;
55672;SDS011;41554;45.366;20.400;2023-01-04T04:52:38;28.10;;;19.02;;
55672;SDS011;41554;45.366;20.400;2023-01-04T04:55:05;27.17;;;19.42;;
55672;SDS011;41554;45.366;20.400;2023-01-04T04:57:32;21.55;;;17.20;;
55672;SDS011;41554;45.366;20.400;2023-01-04T04:59:58;25.20;;;20.55;;
55672;SDS011;41554;45.366;20.400;2023-01-04T05:02:24;26.02;;;17.63;;
55672;SDS011;41554;45.366;20.400;2023-01-04T05:04:50;22.88;;;18.90;;
55672;SDS011;41554;45.366;20.400;2023-01-04T05:07:16;31.30;;;20.10;;
55672;SDS011;41554;45.366;20.400;2023-01-04T05:09:42;30.70;;;21.40;;
55672;SDS011;41554;45.366;20.400;2023-01-04T05:12:09;25.25;;;18.75;;
55672;SDS011;41554;45.366;20.400;2023-01-04T05:14:55;24.58;;;19.10;;
55672;SDS011;41554;45.366;20.400;2023-01-04T05:17:21;30.20;;;21.63;;
55672;SDS011;41554;45.366;20.400;2023-01-04T05:19:47;31.73;;;22.13;;
55672;SDS011;41554;45.366;20.400;2023-01-04T05:22:13;36.35;;;23.58;;
55672;SDS011;41554;45.366;20.400;2023-01-04T05:24:39;32.63;;;21.95;;
55672;SDS011;41554;45.366;20.400;2023-01-04T05:27:05;31.50;;;21.42;;
55672;SDS011;41554;45.366;20.400;2023-01-04T05:29:31;26.38;;;20.95;;
55672;SDS011;41554;45.366;20.400;2023-01-04T05:32:16;33.15;;;20.25;;
55672;SDS011;41554;45.366;20.400;2023-01-04T05:34:42;39.83;;;23.23;;
55672;SDS011;41554;45.366;20.400;2023-01-04T05:37:08;32.33;;;19.13;;
55672;SDS011;41554;45.366;20.400;2023-01-04T05:39:34;28.08;;;20.92;;
55672;SDS011;41554;45.366;20.400;2023-01-04T05:42:00;28.55;;;18.92;;
55672;SDS011;41554;45.366;20.400;2023-01-04T05:44:44;32.13;;;24.15;;
55672;SDS011;41554;45.366;20.400;2023-01-04T05:47:10;31.48;;;22.60;;
55672;SDS011;41554;45.366;20.400;2023-01-04T05:49:36;30.27;;;22.92;;
55672;SDS011;41554;45.366;20.400;2023-01-04T05:52:02;32.10;;;21.58;;
55672;SDS011;41554;45.366;20.400;2023-01-04T05:54:28;33.38;;;23.75;;
55672;SDS011;41554;45.366;20.400;2023-01-04T05:56:54;30.10;;;22.33;;
55672;SDS011;41554;45.366;20.400;2023-01-04T05:59:20;31.98;;;20.40;;
55672;SDS011;41554;45.366;20.400;2023-01-04T06:01:46;40.22;;;24.25;;
55672;SDS011;41554;45.366;20.400;2023-01-04T06:04:12;35.63;;;23.63;;
55672;SDS011;41554;45.366;20.400;2023-01-04T06:06:38;31.80;;;23.13;;
55672;SDS011;41554;45.366;20.400;2023-01-04T06:09:04;38.25;;;22.83;;
55672;SDS011;41554;45.366;20.400;2023-01-04T06:11:30;40.50;;;27.50;;
55672;SDS011;41554;45.366;20.400;2023-01-04T06:13:57;41.47;;;28.83;;
55672;SDS011;41554;45.366;20.400;2023-01-04T06:16:23;37.67;;;27.88;;
55672;SDS011;41554;45.366;20.400;2023-01-04T06:18:49;44.90;;;27.80;;
55672;SDS011;41554;45.366;20.400;2023-01-04T06:21:15;34.20;;;24.70;;
55672;SDS011;41554;45.366;20.400;2023-01-04T06:23:41;32.35;;;23.75;;
55672;SDS011;41554;45.366;20.400;2023-01-04T06:26:07;38.72;;;24.00;;
55672;SDS011;41554;45.366;20.400;2023-01-04T06:28:33;36.83;;;24.50;;
55672;SDS011;41554;45.366;20.400;2023-01-04T06:31:03;33.83;;;25.25;;
55672;SDS011;41554;45.366;20.400;2023-01-04T06:33:29;37.55;;;22.73;;
55672;SDS011;41554;45.366;20.400;2023-01-04T06:35:55;26.10;;;22.05;;
55672;SDS011;41554;45.366;20.400;2023-01-04T06:38:21;27.55;;;21.30;;
55672;SDS011;41554;45.366;20.400;2023-01-04T06:40:47;26.58;;;18.67;;
55672;SDS011;41554;45.366;20.400;2023-01-04T06:43:13;29.17;;;21.48;;
55672;SDS011;41554;45.366;20.400;2023-01-04T06:45:40;23.40;;;17.55;;
55672;SDS011;41554;45.366;20.400;2023-01-04T06:48:07;27.20;;;19.60;;
55672;SDS011;41554;45.366;20.400;2023-01-04T06:50:33;23.50;;;18.27;;
55672;SDS011;41554;45.366;20.400;2023-01-04T06:52:59;29.80;;;19.00;;
55672;SDS011;41554;45.366;20.400;2023-01-04T06:55:25;31.58;;;20.02;;
55672;SDS011;41554;45.366;20.400;2023-01-04T06:57:53;33.53;;;19.85;;
55672;SDS011;41554;45.366;20.400;2023-01-04T07:00:20;33.78;;;22.52;;
55672;SDS011;41554;45.366;20.400;2023-01-04T07:02:46;33.15;;;23.30;;
55672;SDS011;41554;45.366;20.400;2023-01-04T07:05:12;30.38;;;23.05;;
55672;SDS011;41554;45.366;20.400;2023-01-04T07:07:38;31.17;;;22.38;;
55672;SDS011;41554;45.366;20.400;2023-01-04T07:10:04;38.92;;;25.00;;
55672;SDS011;41554;45.366;20.400;2023-01-04T07:12:31;29.58;;;20.65;;
55672;SDS011;41554;45.366;20.400;2023-01-04T07:14:57;31.92;;;22.02;;
55672;SDS011;41554;45.366;20.400;2023-01-04T07:17:23;31.85;;;21.60;;
55672;SDS011;41554;45.366;20.400;2023-01-04T07:19:49;31.90;;;23.17;;
55672;SDS011;41554;45.366;20.400;2023-01-04T07:22:15;38.28;;;22.02;;
55672;SDS011;41554;45.366;20.400;2023-01-04T07:24:41;31.80;;;23.58;;
55672;SDS011;41554;45.366;20.400;2023-01-04T07:27:10;31.23;;;21.40;;
55672;SDS011;41554;45.366;20.400;2023-01-04T07:29:36;33.55;;;23.75;;
55672;SDS011;41554;45.366;20.400;2023-01-04T07:32:03;26.95;;;21.02;;
55672;SDS011;41554;45.366;20.400;2023-01-04T07:34:29;33.72;;;23.35;;
55672;SDS011;41554;45.366;20.400;2023-01-04T07:36:55;36.00;;;23.60;;
55672;SDS011;41554;45.366;20.400;2023-01-04T07:39:22;37.10;;;24.77;;
55672;SDS011;41554;45.366;20.400;2023-01-04T07:41:48;33.40;;;26.08;;
55672;SDS011;41554;45.366;20.400;2023-01-04T07:44:15;32.00;;;25.83;;
55672;SDS011;41554;45.366;20.400;2023-01-04T07:46:45;33.90;;;23.20;;
55672;SDS011;41554;45.366;20.400;2023-01-04T07:49:12;33.05;;;23.17;;
55672;SDS011;41554;45.366;20.400;2023-01-04T07:51:39;37.30;;;20.67;;
55672;SDS011;41554;45.366;20.400;2023-01-04T07:54:05;37.08;;;26.80;;
55672;SDS011;41554;45.366;20.400;2023-01-04T07:56:31;44.20;;;25.35;;
55672;SDS011;41554;45.366;20.400;2023-01-04T07:58:57;33.55;;;25.27;;
55672;SDS011;41554;45.366;20.400;2023-01-04T08:01:24;33.67;;;27.13;;
55672;SDS011;41554;45.366;20.400;2023-01-04T08:03:50;42.53;;;28.02;;
55672;SDS011;41554;45.366;20.400;2023-01-04T08:06:17;46.45;;;30.98;;
55672;SDS011;41554;45.366;20.400;2023-01-04T08:08:44;40.95;;;31.10;;
55672;SDS011;41554;45.366;20.400;2023-01-04T08:11:19;37.42;;;27.27;;
55672;SDS011;41554;45.366;20.400;2023-01-04T08:13:46;33.95;;;25.70;;
55672;SDS011;41554;45.366;20.400;2023-01-04T08:16:31;47.80;;;27.00;;
55672;SDS011;41554;45.366;20.400;2023-01-04T08:19:01;43.63;;;28.13;;
55672;SDS011;41554;45.366;20.400;2023-01-04T08:21:28;39.90;;;25.80;;
55672;SDS011;41554;45.366;20.400;2023-01-04T08:23:55;32.65;;;22.58;;
55672;SDS011;41554;45.366;20.400;2023-01-04T08:26:21;30.98;;;21.50;;
55672;SDS011;41554;45.366;20.400;2023-01-04T08:28:48;41.83;;;26.33;;
55672;SDS011;41554;45.366;20.400;2023-01-04T08:31:21;31.52;;;20.40;;
55672;SDS011;41554;45.366;20.400;2023-01-04T08:33:48;35.25;;;24.05;;
55672;SDS011;41554;45.366;20.400;2023-01-04T08:38:44;27.80;;;21.15;;
55672;SDS011;41554;45.366;20.400;2023-01-04T08:41:10;35.45;;;21.42;;
55672;SDS011;41554;45.366;20.400;2023-01-04T08:43:36;40.13;;;24.10;;
55672;SDS011;41554;45.366;20.400;2023-01-04T08:46:02;22.92;;;16.10;;
55672;SDS011;41554;45.366;20.400;2023-01-04T08:48:29;39.13;;;19.63;;
55672;SDS011;41554;45.366;20.400;2023-01-04T08:50:59;26.95;;;18.98;;
55672;SDS011;41554;45.366;20.400;2023-01-04T08:53:25;31.25;;;21.20;;
55672;SDS011;41554;45.366;20.400;2023-01-04T08:55:52;34.45;;;18.92;;
55672;SDS011;41554;45.366;20.400;2023-01-04T08:58:18;26.52;;;17.15;;
55672;SDS011;41554;45.366;20.400;2023-01-04T09:00:45;27.65;;;19.42;;
55672;SDS011;41554;45.366;20.400;2023-01-04T09:03:11;24.38;;;18.00;;
55672;SDS011;41554;45.366;20.400;2023-01-04T09:05:37;21.25;;;15.25;;
55672;SDS011;41554;45.366;20.400;2023-01-04T09:08:04;24.85;;;15.13;;
55672;SDS011;41554;45.366;20.400;2023-01-04T09:10:30;20.83;;;15.00;;
55672;SDS011;41554;45.366;20.400;2023-01-04T09:12:56;21.38;;;15.02;;
55672;SDS011;41554;45.366;20.400;2023-01-04T09:15:22;17.90;;;11.75;;
55672;SDS011;41554;45.366;20.400;2023-01-04T09:17:48;27.95;;;16.23;;
55672;SDS011;41554;45.366;20.400;2023-01-04T09:20:14;20.55;;;13.65;;
55672;SDS011;41554;45.366;20.400;2023-01-04T09:22:40;23.42;;;14.82;;
55672;SDS011;41554;45.366;20.400;2023-01-04T09:25:06;17.02;;;13.57;;
55672;SDS011;41554;45.366;20.400;2023-01-04T09:27:33;21.73;;;12.50;;
55672;SDS011;41554;45.366;20.400;2023-01-04T09:29:59;18.92;;;12.15;;
55672;SDS011;41554;45.366;20.400;2023-01-04T09:32:25;25.25;;;15.18;;
55672;SDS011;41554;45.366;20.400;2023-01-04T09:34:51;18.13;;;13.27;;
55672;SDS011;41554;45.366;20.400;2023-01-04T09:37:18;16.85;;;13.32;;
55672;SDS011;41554;45.366;20.400;2023-01-04T09:39:44;24.58;;;14.30;;
55672;SDS011;41554;45.366;20.400;2023-01-04T09:44:50;18.17;;;12.90;;
55672;SDS011;41554;45.366;20.400;2023-01-04T09:50:12;13.55;;;11.55;;
55672;SDS011;41554;45.366;20.400;2023-01-04T09:55:55;22.58;;;14.20;;
55672;SDS011;41554;45.366;20.400;2023-01-04T09:57:56;21.05;;;16.75;;
55672;SDS011;41554;45.366;20.400;2023-01-04T10:00:28;24.30;;;18.98;;
55672;SDS011;41554;45.366;20.400;2023-01-04T10:03:08;17.55;;;13.00;;
55672;SDS011;41554;45.366;20.400;2023-01-04T10:05:36;23.65;;;20.10;;
55672;SDS011;41554;45.366;20.400;2023-01-04T10:08:02;18.85;;;14.65;;
55672;SDS011;41554;45.366;20.400;2023-01-04T10:13:13;22.85;;;14.30;;
55672;SDS011;41554;45.366;20.400;2023-01-04T10:15:52;17.00;;;12.27;;
55672;SDS011;41554;45.366;20.400;2023-01-04T10:25:56;20.17;;;14.70;;
55672;SDS011;41554;45.366;20.400;2023-01-04T10:28:29;29.08;;;16.63;;
55672;SDS011;41554;45.366;20.400;2023-01-04T10:35:58;22.95;;;13.77;;
55672;SDS011;41554;45.366;20.400;2023-01-04T10:38:26;23.30;;;14.32;;
55672;SDS011;41554;45.366;20.400;2023-01-04T10:40:52;17.25;;;13.05;;
55672;SDS011;41554;45.366;20.400;2023-01-04T10:43:27;34.65;;;24.70;;
55672;SDS011;41554;45.366;20.400;2023-01-04T10:50:59;55.38;;;37.88;;
55672;SDS011;41554;45.366;20.400;2023-01-04T11:00:57;24.63;;;13.40;;
55672;SDS011;41554;45.366;20.400;2023-01-04T11:06:26;18.67;;;13.23;;
55672;SDS011;41554;45.366;20.400;2023-01-04T11:08:58;18.63;;;13.05;;
55672;SDS011;41554;45.366;20.400;2023-01-04T11:11:39;20.60;;;13.68;;
55672;SDS011;41554;45.366;20.400;2023-01-04T11:14:07;22.88;;;15.85;;
55672;SDS011;41554;45.366;20.400;2023-01-04T11:16:34;15.43;;;10.20;;
55672;SDS011;41554;45.366;20.400;2023-01-04T11:19:01;20.77;;;13.13;;
55672;SDS011;41554;45.366;20.400;2023-01-04T11:21:31;17.00;;;10.13;;
55672;SDS011;41554;45.366;20.400;2023-01-04T11:23:59;14.07;;;9.88;;
55672;SDS011;41554;45.366;20.400;2023-01-04T11:26:29;19.80;;;13.52;;
55672;SDS011;41554;45.366;20.400;2023-01-04T11:28:59;16.38;;;11.10;;
55672;SDS011;41554;45.366;20.400;2023-01-04T11:38:56;17.50;;;10.18;;
55672;SDS011;41554;45.366;20.400;2023-01-04T11:41:22;18.33;;;11.77;;
55672;SDS011;41554;45.366;20.400;2023-01-04T11:43:59;15.38;;;9.00;;
55672;SDS011;41554;45.366;20.400;2023-01-04T11:46:26;17.50;;;12.32;;
55672;SDS011;41554;45.366;20.400;2023-01-04T11:48:53;15.48;;;10.95;;
55672;SDS011;41554;45.366;20.400;2023-01-04T11:53:45;36.83;;;24.75;;
55672;SDS011;41554;45.366;20.400;2023-01-04T11:56:21;23.02;;;14.93;;
55672;SDS011;41554;45.366;20.400;2023-01-04T12:01:46;74.53;;;39.63;;
55672;SDS011;41554;45.366;20.400;2023-01-04T12:04:20;15.18;;;9.75;;
55672;SDS011;41554;45.366;20.400;2023-01-04T12:06:57;54.10;;;26.98;;
55672;SDS011;41554;45.366;20.400;2023-01-04T12:09:23;68.43;;;44.38;;
55672;SDS011;41554;45.366;20.400;2023-01-04T12:11:54;36.42;;;23.42;;
55672;SDS011;41554;45.366;20.400;2023-01-04T12:14:21;57.20;;;32.10;;
55672;SDS011;41554;45.366;20.400;2023-01-04T12:16:52;69.45;;;43.25;;
55672;SDS011;41554;45.366;20.400;2023-01-04T12:19:21;44.05;;;25.95;;
55672;SDS011;41554;45.366;20.400;2023-01-04T12:21:48;87.38;;;51.03;;
55672;SDS011;41554;45.366;20.400;2023-01-04T12:24:20;59.65;;;31.83;;
55672;SDS011;41554;45.366;20.400;2023-01-04T12:26:47;117.70;;;70.70;;
55672;SDS011;41554;45.366;20.400;2023-01-04T12:31:52;69.72;;;39.83;;
55672;SDS011;41554;45.366;20.400;2023-01-04T12:55:02;15.43;;;10.30;;
55672;SDS011;41554;45.366;20.400;2023-01-04T12:57:36;14.95;;;8.25;;
55672;SDS011;41554;45.366;20.400;2023-01-04T13:00:06;10.18;;;7.15;;
55672;SDS011;41554;45.366;20.400;2023-01-04T13:02:33;16.45;;;7.55;;
55672;SDS011;41554;45.366;20.400;2023-01-04T13:10:20;9.15;;;7.13;;
55672;SDS011;41554;45.366;20.400;2023-01-04T13:15:23;10.15;;;7.22;;
55672;SDS011;41554;45.366;20.400;2023-01-04T13:17:55;10.25;;;7.43;;
55672;SDS011;41554;45.366;20.400;2023-01-04T13:20:23;16.65;;;13.18;;
55672;SDS011;41554;45.366;20.400;2023-01-04T13:22:54;8.93;;;6.93;;
55672;SDS011;41554;45.366;20.400;2023-01-04T13:25:21;9.73;;;6.95;;
55672;SDS011;41554;45.366;20.400;2023-01-04T13:30:37;9.02;;;6.45;;
55672;SDS011;41554;45.366;20.400;2023-01-04T13:33:07;10.40;;;7.90;;
55672;SDS011;41554;45.366;20.400;2023-01-04T13:35:33;18.27;;;8.07;;
55672;SDS011;41554;45.366;20.400;2023-01-04T13:37:59;12.05;;;7.75;;
55672;SDS011;41554;45.366;20.400;2023-01-04T13:48:03;49.50;;;25.92;;
55672;SDS011;41554;45.366;20.400;2023-01-04T13:50:40;51.00;;;29.13;;
55672;SDS011;41554;45.366;20.400;2023-01-04T13:55:37;28.52;;;17.33;;
55672;SDS011;41554;45.366;20.400;2023-01-04T13:58:14;48.78;;;27.73;;
55672;SDS011;41554;45.366;20.400;2023-01-04T14:03:24;13.40;;;9.27;;
55672;SDS011;41554;45.366;20.400;2023-01-04T14:05:51;23.35;;;17.25;;
55672;SDS011;41554;45.366;20.400;2023-01-04T14:08:22;29.27;;;16.70;;
55672;SDS011;41554;45.366;20.400;2023-01-04T14:10:52;17.60;;;11.27;;
55672;SDS011;41554;45.366;20.400;2023-01-04T14:13:18;29.55;;;19.75;;
55672;SDS011;41554;45.366;20.400;2023-01-04T14:15:44;56.00;;;35.03;;
55672;SDS011;41554;45.366;20.400;2023-01-04T14:18:27;72.82;;;38.60;;
55672;SDS011;41554;45.366;20.400;2023-01-04T14:20:53;27.48;;;16.98;;
55672;SDS011;41554;45.366;20.400;2023-01-04T14:23:33;37.30;;;22.40;;
55672;SDS011;41554;45.366;20.400;2023-01-04T14:25:59;67.90;;;36.20;;
55672;SDS011;41554;45.366;20.400;2023-01-04T14:28:27;83.10;;;48.67;;
55672;SDS011;41554;45.366;20.400;2023-01-04T14:33:40;34.63;;;18.23;;
55672;SDS011;41554;45.366;20.400;2023-01-04T14:41:38;57.00;;;32.60;;
55672;SDS011;41554;45.366;20.400;2023-01-04T14:44:17;33.33;;;19.70;;
55672;SDS011;41554;45.366;20.400;2023-01-04T14:46:49;47.88;;;26.63;;
55672;SDS011;41554;45.366;20.400;2023-01-04T14:49:15;60.38;;;36.40;;
55672;SDS011;41554;45.366;20.400;2023-01-04T14:54:10;31.23;;;17.67;;
55672;SDS011;41554;45.366;20.400;2023-01-04T14:56:37;25.20;;;15.60;;
55672;SDS011;41554;45.366;20.400;2023-01-04T14:59:03;50.88;;;26.75;;
55672;SDS011;41554;45.366;20.400;2023-01-04T15:01:29;34.25;;;20.15;;
55672;SDS011;41554;45.366;20.400;2023-01-04T15:03:55;43.65;;;23.30;;
55672;SDS011;41554;45.366;20.400;2023-01-04T15:06:21;89.80;;;47.05;;
55672;SDS011;41554;45.366;20.400;2023-01-04T15:08:47;81.32;;;45.08;;
55672;SDS011;41554;45.366;20.400;2023-01-04T15:11:14;57.35;;;32.28;;
55672;SDS011;41554;45.366;20.400;2023-01-04T15:13:41;54.88;;;33.13;;
55672;SDS011;41554;45.366;20.400;2023-01-04T15:16:09;55.42;;;31.13;;
55672;SDS011;41554;45.366;20.400;2023-01-04T15:18:35;66.82;;;39.67;;
55672;SDS011;41554;45.366;20.400;2023-01-04T15:21:02;44.80;;;27.77;;
55672;SDS011;41554;45.366;20.400;2023-01-04T15:23:28;37.47;;;23.42;;
55672;SDS011;41554;45.366;20.400;2023-01-04T15:25:54;31.75;;;17.35;;
55672;SDS011;41554;45.366;20.400;2023-01-04T15:28:21;25.73;;;17.33;;
55672;SDS011;41554;45.366;20.400;2023-01-04T15:30:50;46.92;;;19.20;;
55672;SDS011;41554;45.366;20.400;2023-01-04T15:33:16;61.92;;;21.95;;
55672;SDS011;41554;45.366;20.400;2023-01-04T15:35:42;40.17;;;21.30;;
55672;SDS011;41554;45.366;20.400;2023-01-04T15:38:08;41.75;;;23.27;;
55672;SDS011;41554;45.366;20.400;2023-01-04T15:40:34;38.10;;;21.60;;
55672;SDS011;41554;45.366;20.400;2023-01-04T15:43:01;38.95;;;21.52;;
55672;SDS011;41554;45.366;20.400;2023-01-04T15:45:37;45.10;;;22.75;;
55672;SDS011;41554;45.366;20.400;2023-01-04T15:48:03;37.78;;;22.33;;
55672;SDS011;41554;45.366;20.400;2023-01-04T15:50:32;46.08;;;24.85;;
55672;SDS011;41554;45.366;20.400;2023-01-04T15:52:58;39.85;;;19.77;;
55672;SDS011;41554;45.366;20.400;2023-01-04T15:55:24;35.83;;;21.25;;
55672;SDS011;41554;45.366;20.400;2023-01-04T15:57:49;46.80;;;25.10;;
55672;SDS011;41554;45.366;20.400;2023-01-04T16:00:15;51.08;;;22.90;;
55672;SDS011;41554;45.366;20.400;2023-01-04T16:02:42;46.40;;;21.38;;
55672;SDS011;41554;45.366;20.400;2023-01-04T16:05:07;26.80;;;17.65;;
55672;SDS011;41554;45.366;20.400;2023-01-04T16:07:33;34.53;;;20.02;;
55672;SDS011;41554;45.366;20.400;2023-01-04T16:09:59;51.38;;;24.10;;
55672;SDS011;41554;45.366;20.400;2023-01-04T16:12:25;37.88;;;21.05;;
55672;SDS011;41554;45.366;20.400;2023-01-04T16:15:13;33.67;;;24.10;;
55672;SDS011;41554;45.366;20.400;2023-01-04T16:17:41;36.78;;;23.65;;
55672;SDS011;41554;45.366;20.400;2023-01-04T16:20:08;49.47;;;24.75;;
55672;SDS011;41554;45.366;20.400;2023-01-04T16:22:34;78.65;;;42.38;;
55672;SDS011;41554;45.366;20.400;2023-01-04T16:25:00;83.97;;;38.72;;
55672;SDS011;41554;45.366;20.400;2023-01-04T16:27:26;70.72;;;31.83;;
55672;SDS011;41554;45.366;20.400;2023-01-04T16:29:52;58.63;;;26.80;;
55672;SDS011;41554;45.366;20.400;2023-01-04T16:32:19;41.47;;;27.02;;
55672;SDS011;41554;45.366;20.400;2023-01-04T16:34:47;47.17;;;29.83;;
55672;SDS011;41554;45.366;20.400;2023-01-04T16:37:13;61.05;;;32.58;;
55672;SDS011;41554;45.366;20.400;2023-01-04T16:39:39;62.40;;;29.10;;
55672;SDS011;41554;45.366;20.400;2023-01-04T16:42:05;87.63;;;35.10;;
55672;SDS011;41554;45.366;20.400;2023-01-04T16:44:31;66.38;;;36.80;;
55672;SDS011;41554;45.366;20.400;2023-01-04T16:46:57;61.17;;;34.10;;
55672;SDS011;41554;45.366;20.400;2023-01-04T16:49:23;92.82;;;41.53;;
55672;SDS011;41554;45.366;20.400;2023-01-04T16:51:49;72.50;;;40.58;;